KSAN Airport Information

Runway Information
Runway 09 Length 9401 ft width 200 ft
Elevation 14 ft Threshold 700 ft Heading 106
Runway 27 Length 9401 ft Width 200 ft
Elevation 13 ft Threshold 1810 ft Heading 286
Airport Frequencies
Type A/D Name SOCAL APP/ Frequency 119.6 MHZ
Type ATIS Name ATIS Frequency 134.8 MHZ
Type CLD Name CLNC DEL Frequency 125.9 MHZ
Type GND Name GND Frequency 123.9 MHZ
Type MISC Name CG Frequency 157.15 MHZ
Type MISC Name CG Frequency 898.4 MHZ
Type TWR Name LINDBERGH Frequency 118.3 MHZ
Type UNIC Name UNICOM Frequency 122.95 MHZ
Airport Navaids
Type NDB Name Boing Frequency 245 KHZ
Airport Weather Information & NOTAM
ADDS - METARS form results

(1359 UTC 24 January 2020)
Data provider http://aviationweather.gov/metar/data/
 
METAR text: KSAN 241351Z 00000KT 3/4SM R09/P6000FT BR VV003 13/13 A3003 RMK AO2 SLP168 VIS NE 1/2 T01330133 $
Conditions at: KSAN (SAN DIEGO , CA, US) observed 1351 UTC 24 January 2020
Temperature: 13.3°C (56°F)
Dewpoint: 13.3°C (56°F) [RH = 100%]
Pressure (altimeter): 30.03 inches Hg (1017.0 mb)
[Sea-level pressure: 1016.8 mb]
Winds: calm
Visibility: 0.75 miles (1.21 km)
Ceiling: indefinite ceiling with vertical visibility of 300 feet AGL
Clouds: obscured sky
Weather: BR  (mist)
SOME DATA ABOVE MAY BE INACCURATE!!!
"$" is an indication the sensor requires maintenance

METAR text: KSAN 241348Z 00000KT 3/4SM R09/P6000FT BR VV003 13/13 A3003 RMK AO2 VIS NE 1/2 $
Conditions at: KSAN (SAN DIEGO , CA, US) observed 1348 UTC 24 January 2020
Temperature: 13.0°C (55°F)
Dewpoint: 13.0°C (55°F) [RH = 100%]
Pressure (altimeter): 30.03 inches Hg (1017.0 mb)
Winds: calm
Visibility: 0.75 miles (1.21 km)
Ceiling: indefinite ceiling with vertical visibility of 300 feet AGL
Clouds: obscured sky
Weather: BR  (mist)
SOME DATA ABOVE MAY BE INACCURATE!!!
"$" is an indication the sensor requires maintenance

METAR text: KSAN 241341Z 01003KT 1SM R09/5000VP6000FT BR VV003 13/13 A3003 RMK AO2 T01330133 $
Conditions at: KSAN (SAN DIEGO , CA, US) observed 1341 UTC 24 January 2020
Temperature: 13.3°C (56°F)
Dewpoint: 13.3°C (56°F) [RH = 100%]
Pressure (altimeter): 30.03 inches Hg (1017.0 mb)
Winds: from the N (10 degrees) at 3 MPH (3 knots; 1.5 m/s)
Visibility: 1.00 miles (1.61 km)
Ceiling: indefinite ceiling with vertical visibility of 300 feet AGL
Clouds: obscured sky
Weather: BR  (mist)
SOME DATA ABOVE MAY BE INACCURATE!!!
"$" is an indication the sensor requires maintenance

METAR text: KSAN 241329Z 36003KT 1/2SM R09/3000V4000FT FG VV003 13/13 A3003 RMK AO2 T01330133 $
Conditions at: KSAN (SAN DIEGO , CA, US) observed 1329 UTC 24 January 2020
Temperature: 13.3°C (56°F)
Dewpoint: 13.3°C (56°F) [RH = 100%]
Pressure (altimeter): 30.03 inches Hg (1017.0 mb)
Winds: from the N (360 degrees) at 3 MPH (3 knots; 1.5 m/s)
Visibility: 0.50 miles (0.80 km)
Ceiling: indefinite ceiling with vertical visibility of 300 feet AGL
Clouds: obscured sky
Weather: FG  (fog)
SOME DATA ABOVE MAY BE INACCURATE!!!
"$" is an indication the sensor requires maintenance

METAR text: KSAN 241303Z 00000KT 1/4SM R09/1800V3500FT FG VV002 13/13 A3003 RMK AO2 T01280128 $
Conditions at: KSAN (SAN DIEGO , CA, US) observed 1303 UTC 24 January 2020
Temperature: 12.8°C (55°F)
Dewpoint: 12.8°C (55°F) [RH = 100%]
Pressure (altimeter): 30.03 inches Hg (1017.0 mb)
Winds: calm
Visibility: 0.25 miles (0.40 km)
Ceiling: indefinite ceiling with vertical visibility of 200 feet AGL
Clouds: obscured sky
Weather: FG  (fog)
SOME DATA ABOVE MAY BE INACCURATE!!!
"$" is an indication the sensor requires maintenance

METAR text: KSAN 241300Z 32003KT 1/2SM R09/1600V3000FT FG VV002 13/13 A3003 RMK AO2 T01280128 $
Conditions at: KSAN (SAN DIEGO , CA, US) observed 1300 UTC 24 January 2020
Temperature: 12.8°C (55°F)
Dewpoint: 12.8°C (55°F) [RH = 100%]
Pressure (altimeter): 30.03 inches Hg (1017.0 mb)
Winds: from the NW (320 degrees) at 3 MPH (3 knots; 1.5 m/s)
Visibility: 0.50 miles (0.80 km)
Ceiling: indefinite ceiling with vertical visibility of 200 feet AGL
Clouds: obscured sky
Weather: FG  (fog)
SOME DATA ABOVE MAY BE INACCURATE!!!
"$" is an indication the sensor requires maintenance

Forecast for: KSAN (SAN DIEGO , CA, US)
Text: KSAN 241243Z 2413/2518 VRB02KT 1/2SM FG BKN002
Forecast period: 1300 to 1600 UTC 24 January 2020
Forecast type: FROM: standard forecast or significant change
Winds: variable direction winds at 2 MPH (2 knots; 1.0 m/s)
Visibility: 0.50 miles (0.80 km)
Ceiling: 200 feet AGL
Clouds: broken clouds at 200 feet AGL
Weather: FG  (fog)
Text: TEMPO 2413/2415 4SM BR SCT002
Forecast period: 1300 to 1500 UTC 24 January 2020
Forecast type: TEMPORARY: The following changes expected for less than half the time period
Visibility: 4 miles (6 km)
Ceiling: at least 12,000 feet AGL
Clouds: scattered clouds at 200 feet AGL
Weather: BR  (mist)
Text: FM241600 VRB03KT 5SM BR VCFG SCT004
Forecast period: 1600 to 1730 UTC 24 January 2020
Forecast type: FROM: standard forecast or significant change
Winds: variable direction winds at 3 MPH (3 knots; 1.5 m/s)
Visibility: 5 miles (8 km)
Ceiling: at least 12,000 feet AGL
Clouds: scattered clouds at 400 feet AGL
Weather: BR VCFG  (mist, fog in vicinity)
Text: FM241730 VRB04KT P6SM SCT250
Forecast period: 1730 to 2100 UTC 24 January 2020
Forecast type: FROM: standard forecast or significant change
Winds: variable direction winds at 5 MPH (4 knots; 2.1 m/s)
Visibility: 6 or more miles 10+ km)
Ceiling: at least 12,000 feet AGL
Clouds: scattered clouds at 25000 feet AGL
Weather: no significant weather forecast for this period
Text: FM242100 28008KT P6SM SKC
Forecast period: 2100 UTC 24 January 2020 to 0100 UTC 25 January 2020
Forecast type: FROM: standard forecast or significant change
Winds: from the W (280 degrees) at 9 MPH (8 knots; 4.1 m/s)
Visibility: 6 or more miles 10+ km)
Clouds: clear skies
Weather: no significant weather forecast for this period
Text: FM250100 VRB04KT P6SM SCT005
Forecast period: 0100 to 0500 UTC 25 January 2020
Forecast type: FROM: standard forecast or significant change
Winds: variable direction winds at 5 MPH (4 knots; 2.1 m/s)
Visibility: 6 or more miles 10+ km)
Ceiling: at least 12,000 feet AGL
Clouds: scattered clouds at 500 feet AGL
Weather: no significant weather forecast for this period
Text: FM250500 VRB03KT 4SM BR VCFG BKN007
Forecast period: 0500 to 1600 UTC 25 January 2020
Forecast type: FROM: standard forecast or significant change
Winds: variable direction winds at 3 MPH (3 knots; 1.5 m/s)
Visibility: 4 miles (6 km)
Ceiling: 700 feet AGL
Clouds: broken clouds at 700 feet AGL
Weather: BR VCFG  (mist, fog in vicinity)
Text: FM251600 VRB04KT P6SM FEW012
Forecast period: 1600 to 1800 UTC 25 January 2020
Forecast type: FROM: standard forecast or significant change
Winds: variable direction winds at 5 MPH (4 knots; 2.1 m/s)
Visibility: 6 or more miles 10+ km)
Ceiling: at least 12,000 feet AGL
Clouds: few clouds at 1200 feet AGL
Weather: no significant weather forecast for this period